Crawford, Texas
Current Conditions -  °F | °C
As of 4:35 AM on Thursday 18 Dec 2014 (Local Time) from KPWG Reporting Station
Overcast Overcast  
Wind Chill: 44°   Ceiling: 200
Heat Index: 46°   Visibility: 2mi
Dew Point: 41°   Wind: 5mph
Humidity: 81%   Direction: 110°ESE
Pressure: 30.1"   Gusts: NA
Location:  31.53°N, 97.44°W
Report Text: KPWG 181035Z AUTO 11004KT 2SM OVC002 08/05 A3010 RMK AO1
Loading
Personal Weather Stations






























Interactive Weather Map New forecast layout! Learn more

10-Day Weather Forecast

Advertisements
Track Severe Weather on mobile